sensor_id;sensor_type;location;lat;lon;timestamp;P1;durP1;ratioP1;P2;durP2;ratioP2
47882;SDS011;37739;50.350;7.578;2023-03-05T00:00:54;9.27;;;6.97;;
47882;SDS011;37739;50.350;7.578;2023-03-05T00:03:22;10.27;;;7.33;;
47882;SDS011;37739;50.350;7.578;2023-03-05T00:05:47;9.90;;;7.50;;
47882;SDS011;37739;50.350;7.578;2023-03-05T00:08:15;9.37;;;7.17;;
47882;SDS011;37739;50.350;7.578;2023-03-05T00:10:40;12.80;;;6.50;;
47882;SDS011;37739;50.350;7.578;2023-03-05T00:13:05;9.90;;;6.30;;
47882;SDS011;37739;50.350;7.578;2023-03-05T00:15:35;9.97;;;6.83;;
47882;SDS011;37739;50.350;7.578;2023-03-05T00:18:05;9.93;;;6.80;;
47882;SDS011;37739;50.350;7.578;2023-03-05T00:20:30;12.50;;;6.70;;
47882;SDS011;37739;50.350;7.578;2023-03-05T00:23:00;11.60;;;8.07;;
47882;SDS011;37739;50.350;7.578;2023-03-05T00:25:26;10.37;;;8.10;;
47882;SDS011;37739;50.350;7.578;2023-03-05T00:27:51;9.37;;;7.43;;
47882;SDS011;37739;50.350;7.578;2023-03-05T00:30:16;11.20;;;8.00;;
47882;SDS011;37739;50.350;7.578;2023-03-05T00:32:44;11.43;;;8.13;;
47882;SDS011;37739;50.350;7.578;2023-03-05T00:35:10;12.67;;;8.37;;
47882;SDS011;37739;50.350;7.578;2023-03-05T00:37:37;7.50;;;6.13;;
47882;SDS011;37739;50.350;7.578;2023-03-05T00:40:05;11.20;;;5.80;;
47882;SDS011;37739;50.350;7.578;2023-03-05T00:42:34;7.93;;;6.10;;
47882;SDS011;37739;50.350;7.578;2023-03-05T00:45:02;8.97;;;6.07;;
47882;SDS011;37739;50.350;7.578;2023-03-05T00:47:33;7.70;;;5.50;;
47882;SDS011;37739;50.350;7.578;2023-03-05T00:50:01;8.00;;;6.20;;
47882;SDS011;37739;50.350;7.578;2023-03-05T00:52:28;11.27;;;5.50;;
47882;SDS011;37739;50.350;7.578;2023-03-05T00:54:56;5.10;;;4.23;;
47882;SDS011;37739;50.350;7.578;2023-03-05T00:57:21;7.63;;;4.10;;
47882;SDS011;37739;50.350;7.578;2023-03-05T00:59:47;4.47;;;3.90;;
47882;SDS011;37739;50.350;7.578;2023-03-05T01:02:13;7.47;;;4.57;;
47882;SDS011;37739;50.350;7.578;2023-03-05T01:04:40;5.70;;;3.93;;
47882;SDS011;37739;50.350;7.578;2023-03-05T01:07:12;4.70;;;3.53;;
47882;SDS011;37739;50.350;7.578;2023-03-05T01:09:37;7.00;;;4.40;;
47882;SDS011;37739;50.350;7.578;2023-03-05T01:12:05;5.00;;;3.73;;
47882;SDS011;37739;50.350;7.578;2023-03-05T01:14:30;6.33;;;4.43;;
47882;SDS011;37739;50.350;7.578;2023-03-05T01:16:56;5.80;;;3.67;;
47882;SDS011;37739;50.350;7.578;2023-03-05T01:19:23;6.17;;;4.80;;
47882;SDS011;37739;50.350;7.578;2023-03-05T01:21:49;8.07;;;3.40;;
47882;SDS011;37739;50.350;7.578;2023-03-05T01:24:14;8.20;;;4.13;;
47882;SDS011;37739;50.350;7.578;2023-03-05T01:26:39;7.00;;;3.77;;
47882;SDS011;37739;50.350;7.578;2023-03-05T01:29:05;7.90;;;3.67;;
47882;SDS011;37739;50.350;7.578;2023-03-05T01:31:30;7.90;;;4.23;;
47882;SDS011;37739;50.350;7.578;2023-03-05T01:34:00;7.23;;;3.43;;
47882;SDS011;37739;50.350;7.578;2023-03-05T01:36:30;8.93;;;3.60;;
47882;SDS011;37739;50.350;7.578;2023-03-05T01:38:56;7.20;;;4.00;;
47882;SDS011;37739;50.350;7.578;2023-03-05T01:41:21;5.43;;;4.00;;
47882;SDS011;37739;50.350;7.578;2023-03-05T01:43:50;5.67;;;3.40;;
47882;SDS011;37739;50.350;7.578;2023-03-05T01:52:03;14.93;;;4.47;;
47882;SDS011;37739;50.350;7.578;2023-03-05T01:54:39;7.67;;;4.00;;
47882;SDS011;37739;50.350;7.578;2023-03-05T01:57:18;7.60;;;3.57;;
47882;SDS011;37739;50.350;7.578;2023-03-05T01:59:49;4.87;;;3.40;;
47882;SDS011;37739;50.350;7.578;2023-03-05T02:02:23;8.13;;;3.40;;
47882;SDS011;37739;50.350;7.578;2023-03-05T02:04:50;5.47;;;3.20;;
47882;SDS011;37739;50.350;7.578;2023-03-05T02:07:19;7.67;;;3.80;;
47882;SDS011;37739;50.350;7.578;2023-03-05T02:09:45;7.80;;;3.20;;
47882;SDS011;37739;50.350;7.578;2023-03-05T02:12:10;6.13;;;3.30;;
47882;SDS011;37739;50.350;7.578;2023-03-05T02:14:39;9.77;;;3.07;;
47882;SDS011;37739;50.350;7.578;2023-03-05T02:17:08;4.57;;;2.80;;
47882;SDS011;37739;50.350;7.578;2023-03-05T02:22:17;7.20;;;3.57;;
47882;SDS011;37739;50.350;7.578;2023-03-05T02:24:44;6.93;;;3.50;;
47882;SDS011;37739;50.350;7.578;2023-03-05T02:27:12;5.40;;;3.30;;
47882;SDS011;37739;50.350;7.578;2023-03-05T02:29:40;9.07;;;3.37;;
47882;SDS011;37739;50.350;7.578;2023-03-05T02:32:08;5.60;;;3.47;;
47882;SDS011;37739;50.350;7.578;2023-03-05T02:34:34;7.33;;;3.57;;
47882;SDS011;37739;50.350;7.578;2023-03-05T02:37:00;7.93;;;3.37;;
47882;SDS011;37739;50.350;7.578;2023-03-05T02:39:28;7.77;;;4.00;;
47882;SDS011;37739;50.350;7.578;2023-03-05T02:41:56;8.33;;;4.33;;
47882;SDS011;37739;50.350;7.578;2023-03-05T02:44:24;9.07;;;4.27;;
47882;SDS011;37739;50.350;7.578;2023-03-05T02:46:52;6.60;;;4.10;;
47882;SDS011;37739;50.350;7.578;2023-03-05T02:49:20;6.13;;;3.60;;
47882;SDS011;37739;50.350;7.578;2023-03-05T02:51:45;12.47;;;4.67;;
47882;SDS011;37739;50.350;7.578;2023-03-05T02:54:10;8.03;;;4.23;;
47882;SDS011;37739;50.350;7.578;2023-03-05T02:56:36;6.70;;;4.60;;
47882;SDS011;37739;50.350;7.578;2023-03-05T02:59:03;9.10;;;4.10;;
47882;SDS011;37739;50.350;7.578;2023-03-05T03:01:29;7.13;;;3.80;;
47882;SDS011;37739;50.350;7.578;2023-03-05T03:03:54;11.43;;;5.20;;
47882;SDS011;37739;50.350;7.578;2023-03-05T03:06:22;6.93;;;4.00;;
47882;SDS011;37739;50.350;7.578;2023-03-05T03:08:48;7.23;;;4.10;;
47882;SDS011;37739;50.350;7.578;2023-03-05T03:11:16;7.50;;;4.30;;
47882;SDS011;37739;50.350;7.578;2023-03-05T03:13:45;11.60;;;5.10;;
47882;SDS011;37739;50.350;7.578;2023-03-05T03:16:13;5.20;;;2.97;;
47882;SDS011;37739;50.350;7.578;2023-03-05T03:18:39;6.97;;;4.00;;
47882;SDS011;37739;50.350;7.578;2023-03-05T03:21:08;8.00;;;4.83;;
47882;SDS011;37739;50.350;7.578;2023-03-05T03:23:33;7.87;;;3.70;;
47882;SDS011;37739;50.350;7.578;2023-03-05T03:25:58;8.83;;;4.83;;
47882;SDS011;37739;50.350;7.578;2023-03-05T03:28:26;11.70;;;4.50;;
47882;SDS011;37739;50.350;7.578;2023-03-05T03:30:54;6.80;;;3.97;;
47882;SDS011;37739;50.350;7.578;2023-03-05T03:33:19;9.60;;;4.77;;
47882;SDS011;37739;50.350;7.578;2023-03-05T03:35:47;6.23;;;3.83;;
47882;SDS011;37739;50.350;7.578;2023-03-05T03:38:12;7.47;;;4.20;;
47882;SDS011;37739;50.350;7.578;2023-03-05T03:40:38;5.50;;;3.50;;
47882;SDS011;37739;50.350;7.578;2023-03-05T03:43:06;6.93;;;3.20;;
47882;SDS011;37739;50.350;7.578;2023-03-05T03:45:34;9.80;;;4.00;;
47882;SDS011;37739;50.350;7.578;2023-03-05T03:48:04;8.33;;;3.67;;
47882;SDS011;37739;50.350;7.578;2023-03-05T03:50:29;6.97;;;3.00;;
47882;SDS011;37739;50.350;7.578;2023-03-05T03:52:57;5.40;;;3.03;;
47882;SDS011;37739;50.350;7.578;2023-03-05T03:55:23;5.33;;;2.70;;
47882;SDS011;37739;50.350;7.578;2023-03-05T03:57:48;6.10;;;3.17;;
47882;SDS011;37739;50.350;7.578;2023-03-05T04:00:16;7.00;;;2.67;;
47882;SDS011;37739;50.350;7.578;2023-03-05T04:02:44;5.53;;;3.03;;
47882;SDS011;37739;50.350;7.578;2023-03-05T04:05:11;5.47;;;3.70;;
47882;SDS011;37739;50.350;7.578;2023-03-05T04:07:37;5.43;;;2.83;;
47882;SDS011;37739;50.350;7.578;2023-03-05T04:10:02;6.07;;;3.30;;
47882;SDS011;37739;50.350;7.578;2023-03-05T04:12:30;9.30;;;2.93;;
47882;SDS011;37739;50.350;7.578;2023-03-05T04:14:58;4.53;;;2.87;;
47882;SDS011;37739;50.350;7.578;2023-03-05T04:17:29;6.37;;;3.27;;
47882;SDS011;37739;50.350;7.578;2023-03-05T04:19:57;5.23;;;3.10;;
47882;SDS011;37739;50.350;7.578;2023-03-05T04:22:25;5.73;;;2.90;;
47882;SDS011;37739;50.350;7.578;2023-03-05T04:24:50;4.03;;;2.80;;
47882;SDS011;37739;50.350;7.578;2023-03-05T04:27:16;6.43;;;2.40;;
47882;SDS011;37739;50.350;7.578;2023-03-05T04:29:41;6.97;;;3.20;;
47882;SDS011;37739;50.350;7.578;2023-03-05T04:32:09;3.90;;;2.30;;
47882;SDS011;37739;50.350;7.578;2023-03-05T04:34:35;3.67;;;2.50;;
47882;SDS011;37739;50.350;7.578;2023-03-05T04:37:01;5.70;;;2.50;;
47882;SDS011;37739;50.350;7.578;2023-03-05T04:39:26;4.40;;;2.80;;
47882;SDS011;37739;50.350;7.578;2023-03-05T04:41:52;5.23;;;2.23;;
47882;SDS011;37739;50.350;7.578;2023-03-05T04:44:19;4.27;;;1.90;;
47882;SDS011;37739;50.350;7.578;2023-03-05T04:46:47;3.57;;;2.20;;
47882;SDS011;37739;50.350;7.578;2023-03-05T04:49:14;3.43;;;1.77;;
47882;SDS011;37739;50.350;7.578;2023-03-05T04:51:42;7.10;;;2.10;;
47882;SDS011;37739;50.350;7.578;2023-03-05T04:54:09;1.90;;;1.60;;
47882;SDS011;37739;50.350;7.578;2023-03-05T04:56:36;4.40;;;2.03;;
47882;SDS011;37739;50.350;7.578;2023-03-05T04:59:04;3.77;;;1.77;;
47882;SDS011;37739;50.350;7.578;2023-03-05T05:01:29;2.67;;;1.47;;
47882;SDS011;37739;50.350;7.578;2023-03-05T05:03:55;2.80;;;1.67;;
47882;SDS011;37739;50.350;7.578;2023-03-05T05:06:20;1.90;;;1.47;;
47882;SDS011;37739;50.350;7.578;2023-03-05T05:08:48;7.33;;;1.70;;
47882;SDS011;37739;50.350;7.578;2023-03-05T05:11:13;2.87;;;1.50;;
47882;SDS011;37739;50.350;7.578;2023-03-05T05:13:39;3.10;;;1.30;;
47882;SDS011;37739;50.350;7.578;2023-03-05T05:16:05;3.07;;;1.90;;
47882;SDS011;37739;50.350;7.578;2023-03-05T05:18:33;2.70;;;1.40;;
47882;SDS011;37739;50.350;7.578;2023-03-05T05:21:05;1.50;;;0.90;;
47882;SDS011;37739;50.350;7.578;2023-03-05T05:23:35;3.20;;;1.37;;
47882;SDS011;37739;50.350;7.578;2023-03-05T05:26:02;2.90;;;1.60;;
47882;SDS011;37739;50.350;7.578;2023-03-05T05:28:31;2.43;;;1.50;;
47882;SDS011;37739;50.350;7.578;2023-03-05T05:30:57;3.57;;;1.70;;
47882;SDS011;37739;50.350;7.578;2023-03-05T05:33:27;2.27;;;1.37;;
47882;SDS011;37739;50.350;7.578;2023-03-05T05:35:52;4.60;;;1.47;;
47882;SDS011;37739;50.350;7.578;2023-03-05T05:38:17;3.00;;;1.50;;
47882;SDS011;37739;50.350;7.578;2023-03-05T05:40:43;4.17;;;1.67;;
47882;SDS011;37739;50.350;7.578;2023-03-05T05:43:11;2.50;;;1.43;;
47882;SDS011;37739;50.350;7.578;2023-03-05T05:45:36;2.27;;;1.23;;
47882;SDS011;37739;50.350;7.578;2023-03-05T05:48:02;3.10;;;1.60;;
47882;SDS011;37739;50.350;7.578;2023-03-05T05:50:28;4.13;;;1.80;;
47882;SDS011;37739;50.350;7.578;2023-03-05T05:52:56;3.70;;;1.80;;
47882;SDS011;37739;50.350;7.578;2023-03-05T05:55:26;3.20;;;1.37;;
47882;SDS011;37739;50.350;7.578;2023-03-05T05:57:52;4.30;;;1.83;;
47882;SDS011;37739;50.350;7.578;2023-03-05T06:00:19;3.20;;;2.13;;
47882;SDS011;37739;50.350;7.578;2023-03-05T06:02:47;3.03;;;1.80;;
47882;SDS011;37739;50.350;7.578;2023-03-05T06:05:15;4.23;;;3.40;;
47882;SDS011;37739;50.350;7.578;2023-03-05T06:07:42;4.80;;;2.60;;
47882;SDS011;37739;50.350;7.578;2023-03-05T06:10:10;3.73;;;2.37;;
47882;SDS011;37739;50.350;7.578;2023-03-05T06:12:36;3.50;;;2.37;;
47882;SDS011;37739;50.350;7.578;2023-03-05T06:15:01;3.90;;;2.23;;
47882;SDS011;37739;50.350;7.578;2023-03-05T06:17:29;5.17;;;2.70;;
47882;SDS011;37739;50.350;7.578;2023-03-05T06:19:54;5.43;;;3.00;;
47882;SDS011;37739;50.350;7.578;2023-03-05T06:22:22;4.53;;;2.50;;
47882;SDS011;37739;50.350;7.578;2023-03-05T06:24:47;5.17;;;4.03;;
47882;SDS011;37739;50.350;7.578;2023-03-05T06:27:15;5.50;;;4.13;;
47882;SDS011;37739;50.350;7.578;2023-03-05T06:29:44;5.53;;;3.57;;
47882;SDS011;37739;50.350;7.578;2023-03-05T06:32:10;6.33;;;4.57;;
47882;SDS011;37739;50.350;7.578;2023-03-05T06:34:37;7.23;;;3.80;;
47882;SDS011;37739;50.350;7.578;2023-03-05T06:37:03;5.20;;;3.30;;
47882;SDS011;37739;50.350;7.578;2023-03-05T06:39:28;3.83;;;2.80;;
47882;SDS011;37739;50.350;7.578;2023-03-05T06:41:56;5.87;;;3.20;;
47882;SDS011;37739;50.350;7.578;2023-03-05T06:44:21;6.20;;;3.23;;
47882;SDS011;37739;50.350;7.578;2023-03-05T06:46:49;4.83;;;3.07;;
47882;SDS011;37739;50.350;7.578;2023-03-05T06:49:14;6.53;;;3.30;;
47882;SDS011;37739;50.350;7.578;2023-03-05T06:51:40;4.43;;;2.80;;
47882;SDS011;37739;50.350;7.578;2023-03-05T06:54:11;6.57;;;3.57;;
47882;SDS011;37739;50.350;7.578;2023-03-05T06:56:41;6.83;;;3.37;;
47882;SDS011;37739;50.350;7.578;2023-03-05T06:59:11;3.57;;;2.70;;
47882;SDS011;37739;50.350;7.578;2023-03-05T07:01:37;6.83;;;2.57;;
47882;SDS011;37739;50.350;7.578;2023-03-05T07:04:02;5.77;;;2.83;;
47882;SDS011;37739;50.350;7.578;2023-03-05T07:06:32;4.07;;;2.50;;
47882;SDS011;37739;50.350;7.578;2023-03-05T07:09:02;4.33;;;2.60;;
47882;SDS011;37739;50.350;7.578;2023-03-05T07:11:33;4.70;;;3.00;;
47882;SDS011;37739;50.350;7.578;2023-03-05T07:13:59;4.67;;;3.13;;
47882;SDS011;37739;50.350;7.578;2023-03-05T07:16:30;4.23;;;2.80;;
47882;SDS011;37739;50.350;7.578;2023-03-05T07:18:57;6.30;;;3.03;;
47882;SDS011;37739;50.350;7.578;2023-03-05T07:21:26;5.53;;;3.20;;
47882;SDS011;37739;50.350;7.578;2023-03-05T07:23:56;7.97;;;2.77;;
47882;SDS011;37739;50.350;7.578;2023-03-05T07:26:27;5.93;;;3.10;;
47882;SDS011;37739;50.350;7.578;2023-03-05T07:28:55;4.73;;;3.00;;
47882;SDS011;37739;50.350;7.578;2023-03-05T07:31:22;5.83;;;3.70;;
47882;SDS011;37739;50.350;7.578;2023-03-05T07:33:51;7.47;;;4.10;;
47882;SDS011;37739;50.350;7.578;2023-03-05T07:36:17;4.50;;;3.13;;
47882;SDS011;37739;50.350;7.578;2023-03-05T07:38:44;4.60;;;3.50;;
47882;SDS011;37739;50.350;7.578;2023-03-05T07:41:13;7.10;;;3.87;;
47882;SDS011;37739;50.350;7.578;2023-03-05T07:43:50;5.73;;;3.50;;
47882;SDS011;37739;50.350;7.578;2023-03-05T07:46:20;4.93;;;2.83;;
47882;SDS011;37739;50.350;7.578;2023-03-05T07:48:52;5.27;;;3.90;;
47882;SDS011;37739;50.350;7.578;2023-03-05T07:51:19;6.30;;;3.80;;
47882;SDS011;37739;50.350;7.578;2023-03-05T07:53:48;10.33;;;3.80;;
47882;SDS011;37739;50.350;7.578;2023-03-05T07:56:35;4.30;;;2.90;;
47882;SDS011;37739;50.350;7.578;2023-03-05T07:59:07;5.30;;;3.90;;
47882;SDS011;37739;50.350;7.578;2023-03-05T08:01:37;8.83;;;4.10;;
47882;SDS011;37739;50.350;7.578;2023-03-05T08:04:03;5.37;;;3.80;;
47882;SDS011;37739;50.350;7.578;2023-03-05T08:06:30;4.30;;;3.33;;
47882;SDS011;37739;50.350;7.578;2023-03-05T08:08:56;5.40;;;3.17;;
47882;SDS011;37739;50.350;7.578;2023-03-05T08:11:25;4.10;;;3.30;;
47882;SDS011;37739;50.350;7.578;2023-03-05T08:13:54;3.97;;;3.17;;
47882;SDS011;37739;50.350;7.578;2023-03-05T08:16:25;5.80;;;2.77;;
47882;SDS011;37739;50.350;7.578;2023-03-05T08:18:54;5.30;;;3.80;;
47882;SDS011;37739;50.350;7.578;2023-03-05T08:21:27;8.23;;;3.77;;
47882;SDS011;37739;50.350;7.578;2023-03-05T08:23:54;5.03;;;3.33;;
47882;SDS011;37739;50.350;7.578;2023-03-05T08:26:22;5.57;;;3.63;;
47882;SDS011;37739;50.350;7.578;2023-03-05T08:28:48;5.93;;;3.77;;
47882;SDS011;37739;50.350;7.578;2023-03-05T08:31:15;6.23;;;3.53;;
47882;SDS011;37739;50.350;7.578;2023-03-05T08:33:47;5.00;;;2.70;;
47882;SDS011;37739;50.350;7.578;2023-03-05T08:36:13;4.27;;;2.73;;
47882;SDS011;37739;50.350;7.578;2023-03-05T08:38:43;4.20;;;3.80;;
47882;SDS011;37739;50.350;7.578;2023-03-05T08:41:10;4.30;;;2.80;;
47882;SDS011;37739;50.350;7.578;2023-03-05T08:43:37;3.27;;;2.10;;
47882;SDS011;37739;50.350;7.578;2023-03-05T08:46:03;4.33;;;2.60;;
47882;SDS011;37739;50.350;7.578;2023-03-05T08:48:29;3.30;;;2.20;;
47882;SDS011;37739;50.350;7.578;2023-03-05T08:50:55;3.60;;;2.27;;
47882;SDS011;37739;50.350;7.578;2023-03-05T08:53:23;3.37;;;2.83;;
47882;SDS011;37739;50.350;7.578;2023-03-05T08:55:54;3.73;;;2.70;;
47882;SDS011;37739;50.350;7.578;2023-03-05T08:58:23;4.00;;;2.40;;
47882;SDS011;37739;50.350;7.578;2023-03-05T09:00:48;4.57;;;2.00;;
47882;SDS011;37739;50.350;7.578;2023-03-05T09:03:14;3.63;;;2.20;;
47882;SDS011;37739;50.350;7.578;2023-03-05T09:05:42;2.47;;;1.90;;
47882;SDS011;37739;50.350;7.578;2023-03-05T09:08:08;2.77;;;2.20;;
47882;SDS011;37739;50.350;7.578;2023-03-05T09:10:33;4.30;;;2.70;;
47882;SDS011;37739;50.350;7.578;2023-03-05T09:13:04;6.13;;;2.73;;
47882;SDS011;37739;50.350;7.578;2023-03-05T09:15:32;4.57;;;2.87;;
47882;SDS011;37739;50.350;7.578;2023-03-05T09:17:57;6.93;;;2.47;;
47882;SDS011;37739;50.350;7.578;2023-03-05T09:20:23;3.27;;;2.60;;
47882;SDS011;37739;50.350;7.578;2023-03-05T09:22:49;5.47;;;2.60;;
47882;SDS011;37739;50.350;7.578;2023-03-05T09:25:16;2.43;;;2.20;;
47882;SDS011;37739;50.350;7.578;2023-03-05T09:27:44;2.50;;;2.30;;
47882;SDS011;37739;50.350;7.578;2023-03-05T09:30:10;2.97;;;2.30;;
47882;SDS011;37739;50.350;7.578;2023-03-05T09:32:37;3.60;;;2.20;;
47882;SDS011;37739;50.350;7.578;2023-03-05T09:35:07;2.83;;;2.10;;
47882;SDS011;37739;50.350;7.578;2023-03-05T09:37:35;2.93;;;1.93;;
47882;SDS011;37739;50.350;7.578;2023-03-05T09:40:00;3.57;;;2.17;;
47882;SDS011;37739;50.350;7.578;2023-03-05T09:47:25;2.73;;;2.50;;
47882;SDS011;37739;50.350;7.578;2023-03-05T09:50:02;2.57;;;2.37;;
47882;SDS011;37739;50.350;7.578;2023-03-05T09:52:49;3.13;;;2.70;;
47882;SDS011;37739;50.350;7.578;2023-03-05T09:55:23;2.23;;;2.03;;
47882;SDS011;37739;50.350;7.578;2023-03-05T09:57:56;3.77;;;2.27;;
47882;SDS011;37739;50.350;7.578;2023-03-05T10:00:35;5.60;;;3.63;;
47882;SDS011;37739;50.350;7.578;2023-03-05T10:03:05;5.93;;;3.57;;
47882;SDS011;37739;50.350;7.578;2023-03-05T10:08:43;3.67;;;2.90;;
47882;SDS011;37739;50.350;7.578;2023-03-05T10:14:29;3.80;;;2.87;;
47882;SDS011;37739;50.350;7.578;2023-03-05T10:22:30;3.57;;;2.37;;
47882;SDS011;37739;50.350;7.578;2023-03-05T10:25:08;3.93;;;2.43;;
47882;SDS011;37739;50.350;7.578;2023-03-05T10:27:49;3.10;;;2.43;;
47882;SDS011;37739;50.350;7.578;2023-03-05T10:41:01;3.57;;;2.70;;
47882;SDS011;37739;50.350;7.578;2023-03-05T10:46:35;4.10;;;3.40;;
47882;SDS011;37739;50.350;7.578;2023-03-05T10:49:11;4.23;;;3.50;;
47882;SDS011;37739;50.350;7.578;2023-03-05T10:51:46;5.50;;;3.20;;
47882;SDS011;37739;50.350;7.578;2023-03-05T10:54:23;4.30;;;3.90;;
47882;SDS011;37739;50.350;7.578;2023-03-05T10:59:49;3.33;;;2.60;;
47882;SDS011;37739;50.350;7.578;2023-03-05T11:02:17;3.87;;;2.83;;
47882;SDS011;37739;50.350;7.578;2023-03-05T11:04:46;4.47;;;2.80;;
47882;SDS011;37739;50.350;7.578;2023-03-05T11:12:35;4.57;;;2.97;;
47882;SDS011;37739;50.350;7.578;2023-03-05T11:20:19;2.77;;;2.20;;
47882;SDS011;37739;50.350;7.578;2023-03-05T11:25:56;5.53;;;3.40;;
47882;SDS011;37739;50.350;7.578;2023-03-05T11:28:27;3.63;;;3.33;;
47882;SDS011;37739;50.350;7.578;2023-03-05T11:31:07;4.37;;;2.90;;
47882;SDS011;37739;50.350;7.578;2023-03-05T11:39:09;4.40;;;2.83;;
47882;SDS011;37739;50.350;7.578;2023-03-05T11:41:43;4.40;;;3.37;;
47882;SDS011;37739;50.350;7.578;2023-03-05T11:44:39;4.67;;;3.30;;
47882;SDS011;37739;50.350;7.578;2023-03-05T11:50:37;3.30;;;3.00;;
47882;SDS011;37739;50.350;7.578;2023-03-05T11:52:48;3.43;;;2.80;;
47882;SDS011;37739;50.350;7.578;2023-03-05T11:55:27;3.93;;;2.40;;
47882;SDS011;37739;50.350;7.578;2023-03-05T12:00:32;3.50;;;2.93;;
47882;SDS011;37739;50.350;7.578;2023-03-05T12:03:01;3.37;;;2.70;;
47882;SDS011;37739;50.350;7.578;2023-03-05T12:05:32;4.77;;;2.77;;
47882;SDS011;37739;50.350;7.578;2023-03-05T12:08:01;3.97;;;3.20;;
47882;SDS011;37739;50.350;7.578;2023-03-05T12:10:29;5.10;;;3.60;;
47882;SDS011;37739;50.350;7.578;2023-03-05T12:23:54;3.47;;;3.03;;
47882;SDS011;37739;50.350;7.578;2023-03-05T12:31:56;3.73;;;2.77;;
47882;SDS011;37739;50.350;7.578;2023-03-05T12:34:35;3.13;;;2.77;;
47882;SDS011;37739;50.350;7.578;2023-03-05T12:37:07;3.03;;;2.70;;
47882;SDS011;37739;50.350;7.578;2023-03-05T12:47:43;2.83;;;2.43;;
47882;SDS011;37739;50.350;7.578;2023-03-05T12:55:37;2.97;;;2.67;;
47882;SDS011;37739;50.350;7.578;2023-03-05T12:58:17;10.80;;;9.90;;
47882;SDS011;37739;50.350;7.578;2023-03-05T13:04:01;4.37;;;3.00;;
47882;SDS011;37739;50.350;7.578;2023-03-05T13:06:35;3.00;;;2.70;;
47882;SDS011;37739;50.350;7.578;2023-03-05T13:09:06;2.83;;;1.87;;
47882;SDS011;37739;50.350;7.578;2023-03-05T13:11:47;2.17;;;1.60;;
47882;SDS011;37739;50.350;7.578;2023-03-05T13:17:01;2.50;;;1.70;;
47882;SDS011;37739;50.350;7.578;2023-03-05T13:19:46;1.97;;;1.77;;
47882;SDS011;37739;50.350;7.578;2023-03-05T13:22:12;2.37;;;2.17;;
47882;SDS011;37739;50.350;7.578;2023-03-05T13:24:42;2.40;;;2.13;;
47882;SDS011;37739;50.350;7.578;2023-03-05T13:27:23;2.20;;;1.83;;
47882;SDS011;37739;50.350;7.578;2023-03-05T13:29:53;1.70;;;1.40;;
47882;SDS011;37739;50.350;7.578;2023-03-05T13:32:25;1.93;;;1.67;;
47882;SDS011;37739;50.350;7.578;2023-03-05T13:34:55;1.73;;;1.50;;
47882;SDS011;37739;50.350;7.578;2023-03-05T13:37:24;2.07;;;1.50;;
47882;SDS011;37739;50.350;7.578;2023-03-05T13:39:53;3.13;;;1.50;;
47882;SDS011;37739;50.350;7.578;2023-03-05T13:42:22;2.53;;;1.40;;
47882;SDS011;37739;50.350;7.578;2023-03-05T13:44:57;1.47;;;1.30;;
47882;SDS011;37739;50.350;7.578;2023-03-05T13:47:26;2.00;;;1.63;;
47882;SDS011;37739;50.350;7.578;2023-03-05T13:49:56;2.10;;;1.83;;
47882;SDS011;37739;50.350;7.578;2023-03-05T13:52:26;3.00;;;2.23;;
47882;SDS011;37739;50.350;7.578;2023-03-05T13:55:00;2.97;;;2.50;;
47882;SDS011;37739;50.350;7.578;2023-03-05T13:57:32;2.50;;;1.83;;
47882;SDS011;37739;50.350;7.578;2023-03-05T14:00:00;3.43;;;1.90;;
47882;SDS011;37739;50.350;7.578;2023-03-05T14:02:28;2.80;;;1.80;;
47882;SDS011;37739;50.350;7.578;2023-03-05T14:04:54;4.10;;;2.63;;
47882;SDS011;37739;50.350;7.578;2023-03-05T14:07:39;3.47;;;2.37;;
47882;SDS011;37739;50.350;7.578;2023-03-05T14:13:04;5.00;;;4.40;;
47882;SDS011;37739;50.350;7.578;2023-03-05T14:15:35;3.87;;;3.20;;
47882;SDS011;37739;50.350;7.578;2023-03-05T14:20:37;2.70;;;2.43;;
47882;SDS011;37739;50.350;7.578;2023-03-05T14:25:52;11.40;;;6.40;;
47882;SDS011;37739;50.350;7.578;2023-03-05T14:28:57;9.90;;;8.20;;
47882;SDS011;37739;50.350;7.578;2023-03-05T14:31:28;5.83;;;4.73;;
47882;SDS011;37739;50.350;7.578;2023-03-05T14:34:00;5.10;;;4.60;;
47882;SDS011;37739;50.350;7.578;2023-03-05T14:36:31;4.70;;;4.30;;
47882;SDS011;37739;50.350;7.578;2023-03-05T14:39:00;5.17;;;3.73;;
47882;SDS011;37739;50.350;7.578;2023-03-05T14:43:56;3.30;;;3.00;;
47882;SDS011;37739;50.350;7.578;2023-03-05T14:46:21;3.53;;;2.60;;
47882;SDS011;37739;50.350;7.578;2023-03-05T14:48:47;3.23;;;2.57;;
47882;SDS011;37739;50.350;7.578;2023-03-05T14:51:12;4.53;;;3.93;;
47882;SDS011;37739;50.350;7.578;2023-03-05T14:53:39;4.07;;;3.67;;
47882;SDS011;37739;50.350;7.578;2023-03-05T14:56:22;3.70;;;3.40;;
47882;SDS011;37739;50.350;7.578;2023-03-05T14:58:52;4.67;;;3.80;;
47882;SDS011;37739;50.350;7.578;2023-03-05T15:01:23;4.30;;;3.90;;
47882;SDS011;37739;50.350;7.578;2023-03-05T15:03:49;4.37;;;3.97;;
47882;SDS011;37739;50.350;7.578;2023-03-05T15:06:20;2.93;;;2.70;;
47882;SDS011;37739;50.350;7.578;2023-03-05T15:09:00;3.00;;;2.70;;
47882;SDS011;37739;50.350;7.578;2023-03-05T15:11:26;3.57;;;3.27;;
47882;SDS011;37739;50.350;7.578;2023-03-05T15:13:54;2.53;;;2.27;;
47882;SDS011;37739;50.350;7.578;2023-03-05T15:16:19;3.33;;;3.00;;
47882;SDS011;37739;50.350;7.578;2023-03-05T15:18:46;2.90;;;2.17;;
47882;SDS011;37739;50.350;7.578;2023-03-05T15:21:12;3.50;;;3.20;;
47882;SDS011;37739;50.350;7.578;2023-03-05T15:23:37;2.30;;;1.97;;
47882;SDS011;37739;50.350;7.578;2023-03-05T15:26:03;2.90;;;2.70;;
47882;SDS011;37739;50.350;7.578;2023-03-05T15:28:33;2.63;;;2.27;;
47882;SDS011;37739;50.350;7.578;2023-03-05T15:31:03;2.40;;;2.20;;
47882;SDS011;37739;50.350;7.578;2023-03-05T15:33:31;2.30;;;2.10;;
47882;SDS011;37739;50.350;7.578;2023-03-05T15:35:58;2.30;;;2.10;;
47882;SDS011;37739;50.350;7.578;2023-03-05T15:38:24;2.50;;;2.30;;
47882;SDS011;37739;50.350;7.578;2023-03-05T15:40:49;3.63;;;3.33;;
47882;SDS011;37739;50.350;7.578;2023-03-05T15:43:16;3.10;;;2.90;;
47882;SDS011;37739;50.350;7.578;2023-03-05T15:45:44;2.60;;;2.37;;
47882;SDS011;37739;50.350;7.578;2023-03-05T15:48:10;2.70;;;2.50;;
47882;SDS011;37739;50.350;7.578;2023-03-05T15:50:38;3.50;;;3.20;;
47882;SDS011;37739;50.350;7.578;2023-03-05T15:53:09;3.07;;;2.77;;
47882;SDS011;37739;50.350;7.578;2023-03-05T15:55:40;3.20;;;2.77;;
47882;SDS011;37739;50.350;7.578;2023-03-05T15:58:08;3.30;;;3.00;;
47882;SDS011;37739;50.350;7.578;2023-03-05T16:00:36;3.40;;;2.90;;
47882;SDS011;37739;50.350;7.578;2023-03-05T16:03:01;3.80;;;3.13;;
47882;SDS011;37739;50.350;7.578;2023-03-05T16:05:27;3.10;;;2.90;;
47882;SDS011;37739;50.350;7.578;2023-03-05T16:07:55;3.67;;;3.33;;
47882;SDS011;37739;50.350;7.578;2023-03-05T16:10:23;5.90;;;5.30;;
47882;SDS011;37739;50.350;7.578;2023-03-05T16:13:00;7.27;;;5.53;;
47882;SDS011;37739;50.350;7.578;2023-03-05T16:15:30;6.03;;;5.53;;
47882;SDS011;37739;50.350;7.578;2023-03-05T16:17:58;5.10;;;3.97;;
47882;SDS011;37739;50.350;7.578;2023-03-05T16:20:26;4.77;;;4.30;;
47882;SDS011;37739;50.350;7.578;2023-03-05T16:22:54;6.00;;;4.57;;
47882;SDS011;37739;50.350;7.578;2023-03-05T16:25:19;5.57;;;4.97;;
47882;SDS011;37739;50.350;7.578;2023-03-05T16:27:46;5.17;;;4.67;;
47882;SDS011;37739;50.350;7.578;2023-03-05T16:30:13;5.90;;;5.30;;
47882;SDS011;37739;50.350;7.578;2023-03-05T16:32:39;6.77;;;5.00;;
47882;SDS011;37739;50.350;7.578;2023-03-05T16:35:10;6.10;;;5.33;;
47882;SDS011;37739;50.350;7.578;2023-03-05T16:37:39;6.40;;;5.80;;
47882;SDS011;37739;50.350;7.578;2023-03-05T16:40:05;7.27;;;5.13;;
47882;SDS011;37739;50.350;7.578;2023-03-05T16:42:37;5.37;;;4.87;;
47882;SDS011;37739;50.350;7.578;2023-03-05T16:45:08;5.53;;;5.00;;
47882;SDS011;37739;50.350;7.578;2023-03-05T16:47:36;4.90;;;4.50;;
47882;SDS011;37739;50.350;7.578;2023-03-05T16:50:02;5.50;;;5.00;;